Time;durP1;ratioP1;P1;durP2;ratioP2;P2;SDS_P1;SDS_P2;PMS_P1;PMS_P2;Temp;Humidity;BMP_temperature;BMP_pressure;BME280_temperature;BME280_humidity;BME280_pressure;Samples;Min_cycle;Max_cycle;Signal;HPM_P1;HPM_P2
2022/02/08 00:01:17;;;;;;;8.25;1.92;;;;;;;;;;6216567;23;19996;-78
2022/02/08 00:03:43;;;;;;;12.77;2.40;;;;;;;;;;6216444;23;20378;-79
2022/02/08 00:08:33;;;;;;;15.55;2.38;;;;;;;;;;6217647;23;20031;-80
2022/02/08 00:10:59;;;;;;;10.93;2.13;;;;;;;;;;6216342;23;19997;-78
2022/02/08 00:13:24;;;;;;;14.23;2.58;;;;;;;;;;6217029;23;20001;-79
2022/02/08 00:15:49;;;;;;;15.35;2.75;;;;;;;;;;6217564;23;20415;-79
2022/02/08 00:18:14;;;;;;;8.43;2.55;;;;;;;;;;6215719;23;20080;-80
2022/02/08 00:20:40;;;;;;;9.63;2.10;;;;;;;;;;6216203;23;20434;-78
2022/02/08 00:23:05;;;;;;;8.95;2.47;;;;;;;;;;6216123;23;19996;-79
2022/02/08 00:25:30;;;;;;;8.45;2.10;;;;;;;;;;6216142;23;19993;-79
2022/02/08 00:27:55;;;;;;;13.25;2.58;;;;;;;;;;6214453;23;20007;-79
2022/02/08 00:30:20;;;;;;;11.52;2.67;;;;;;;;;;6215447;23;20051;-79
2022/02/08 00:32:46;;;;;;;14.55;2.45;;;;;;;;;;6215130;23;20028;-79
2022/02/08 00:35:11;;;;;;;19.80;4.03;;;;;;;;;;6213283;23;20000;-78
2022/02/08 00:37:37;;;;;;;13.75;3.90;;;;;;;;;;6216676;23;20426;-79
2022/02/08 00:40:02;;;;;;;6.45;3.03;;;;;;;;;;6217317;23;19997;-80
2022/02/08 00:42:30;;;;;;;11.15;3.08;;;;;;;;;;6191077;23;19996;-79
2022/02/08 00:45:09;;;;;;;10.80;3.10;;;;;;;;;;6219319;23;20019;-80
2022/02/08 00:47:37;;;;;;;11.68;3.33;;;;;;;;;;6218532;23;20071;-79
2022/02/08 00:50:07;;;;;;;13.90;3.80;;;;;;;;;;6217622;23;19997;-78
2022/02/08 00:52:33;;;;;;;15.60;3.00;;;;;;;;;;6191304;23;19997;-79
2022/02/08 00:54:59;;;;;;;11.52;3.63;;;;;;;;;;6217477;23;20421;-79
2022/02/08 00:57:24;;;;;;;11.43;3.33;;;;;;;;;;6216154;23;20000;-78
2022/02/08 00:59:49;;;;;;;10.07;2.60;;;;;;;;;;6216266;23;20001;-78
2022/02/08 01:02:14;;;;;;;13.65;3.95;;;;;;;;;;6218986;23;20378;-79
2022/02/08 01:04:40;;;;;;;12.27;3.70;;;;;;;;;;6192566;23;20003;-81
2022/02/08 01:07:06;;;;;;;7.40;2.85;;;;;;;;;;6219302;23;19997;-81
2022/02/08 01:12:00;;;;;;;8.80;3.50;;;;;;;;;;6220084;23;20001;-80
2022/02/08 01:14:25;;;;;;;17.63;3.60;;;;;;;;;;6220016;23;20019;-79
2022/02/08 01:16:51;;;;;;;11.77;3.80;;;;;;;;;;6219066;23;20180;-79
2022/02/08 01:19:19;;;;;;;17.73;3.58;;;;;;;;;;6194670;23;20020;-81
2022/02/08 01:21:44;;;;;;;10.32;3.55;;;;;;;;;;6193445;23;20000;-80
2022/02/08 01:24:09;;;;;;;10.93;3.33;;;;;;;;;;6221362;23;20322;-81
2022/02/08 01:26:44;;;;;;;7.35;2.97;;;;;;;;;;6218888;23;20000;-80
2022/02/08 01:29:35;;;;;;;10.20;3.67;;;;;;;;;;6219185;23;19997;-79
2022/02/08 01:32:13;;;;;;;11.88;3.22;;;;;;;;;;6215457;23;20001;-79
2022/02/08 01:34:54;;;;;;;9.38;3.20;;;;;;;;;;6215652;23;20036;-79
2022/02/08 01:40:20;;;;;;;12.93;3.72;;;;;;;;;;6215704;23;20088;-78
2022/02/08 01:48:15;;;;;;;14.10;3.92;;;;;;;;;;6167220;23;20433;-79
2022/02/08 01:50:41;;;;;;;11.65;3.28;;;;;;;;;;6216303;23;20001;-78
2022/02/08 01:53:07;;;;;;;15.73;3.13;;;;;;;;;;6213989;23;20455;-78
2022/02/08 01:55:33;;;;;;;11.18;3.72;;;;;;;;;;6215754;23;20000;-79
2022/02/08 01:57:59;;;;;;;11.73;3.03;;;;;;;;;;6215481;23;20020;-79
2022/02/08 02:00:24;;;;;;;15.68;4.30;;;;;;;;;;6213873;23;20426;-79
2022/02/08 02:02:50;;;;;;;12.55;3.60;;;;;;;;;;6213432;23;20072;-78
2022/02/08 02:05:15;;;;;;;8.70;3.58;;;;;;;;;;6213783;23;20338;-79
2022/02/08 02:07:48;;;;;;;9.93;3.13;;;;;;;;;;6215171;23;19996;-79
2022/02/08 02:10:14;;;;;;;10.88;4.15;;;;;;;;;;6218871;23;20023;-79
2022/02/08 02:12:54;;;;;;;13.43;3.85;;;;;;;;;;6216288;23;20005;-80
2022/02/08 02:15:19;;;;;;;9.45;3.80;;;;;;;;;;6214812;23;20004;-77
2022/02/08 02:17:44;;;;;;;13.18;4.50;;;;;;;;;;6213569;23;19993;-78
2022/02/08 02:20:10;;;;;;;9.65;3.55;;;;;;;;;;6215344;23;19997;-77
2022/02/08 02:22:35;;;;;;;13.15;4.32;;;;;;;;;;6215016;23;20353;-78
2022/02/08 02:25:00;;;;;;;13.13;3.83;;;;;;;;;;6215206;23;20004;-78
2022/02/08 02:27:25;;;;;;;16.13;4.30;;;;;;;;;;6214533;23;20450;-78
2022/02/08 02:29:50;;;;;;;11.57;4.57;;;;;;;;;;6214873;23;19996;-76
2022/02/08 02:32:16;;;;;;;12.13;3.85;;;;;;;;;;6214542;23;20009;-76
2022/02/08 02:34:48;;;;;;;8.57;3.92;;;;;;;;;;6217097;23;19984;-80
2022/02/08 02:37:13;;;;;;;8.93;3.75;;;;;;;;;;6216920;23;20020;-77
2022/02/08 02:39:39;;;;;;;18.80;4.20;;;;;;;;;;6217024;23;19988;-78
2022/02/08 02:42:09;;;;;;;9.73;3.70;;;;;;;;;;6216138;23;20012;-79
2022/02/08 02:44:34;;;;;;;11.20;3.95;;;;;;;;;;6216560;23;20043;-79
2022/02/08 02:47:00;;;;;;;16.98;3.90;;;;;;;;;;6216686;23;19997;-80
2022/02/08 02:49:26;;;;;;;12.00;4.40;;;;;;;;;;6216602;23;20112;-80
2022/02/08 02:51:51;;;;;;;12.35;4.00;;;;;;;;;;6217550;23;20442;-79
2022/02/08 02:54:18;;;;;;;7.82;3.10;;;;;;;;;;6217623;23;20044;-79
2022/02/08 02:56:44;;;;;;;10.90;3.60;;;;;;;;;;6190582;23;20083;-78
2022/02/08 02:59:10;;;;;;;12.40;4.53;;;;;;;;;;6219690;23;20059;-79
2022/02/08 03:20:47;;;;;;;12.07;3.83;;;;;;;;;;6235955;23;20452;-79
2022/02/08 03:23:12;;;;;;;9.63;4.03;;;;;;;;;;6222845;23;19992;-81
2022/02/08 03:25:38;;;;;;;14.75;3.58;;;;;;;;;;6223061;23;20066;-81
2022/02/08 03:28:03;;;;;;;6.47;2.92;;;;;;;;;;6224473;23;19999;-77
2022/02/08 03:30:28;;;;;;;9.98;4.03;;;;;;;;;;6228102;23;19997;-78
2022/02/08 03:32:54;;;;;;;15.45;3.95;;;;;;;;;;6236984;23;20000;-78
2022/02/08 03:35:20;;;;;;;15.93;4.07;;;;;;;;;;6238076;23;19985;-78
2022/02/08 03:37:54;;;;;;;16.50;3.58;;;;;;;;;;6236296;23;20039;-81
2022/02/08 03:40:36;;;;;;;16.52;3.58;;;;;;;;;;6236360;23;19996;-80
2022/02/08 03:43:12;;;;;;;10.60;3.70;;;;;;;;;;6236216;23;19996;-79
2022/02/08 03:45:38;;;;;;;12.95;3.17;;;;;;;;;;6204488;23;20024;-78
2022/02/08 03:48:03;;;;;;;20.50;4.57;;;;;;;;;;6218095;23;20023;-79
2022/02/08 03:50:28;;;;;;;12.82;4.00;;;;;;;;;;6191940;23;20027;-79
2022/02/08 03:52:54;;;;;;;8.65;2.95;;;;;;;;;;6218096;23;20019;-78
2022/02/08 03:55:19;;;;;;;9.38;3.55;;;;;;;;;;6191537;23;20401;-79
2022/02/08 03:57:44;;;;;;;19.60;3.78;;;;;;;;;;6218076;23;20318;-78
2022/02/08 04:00:09;;;;;;;15.68;4.24;;;;;;;;;;6217033;23;20055;-78
2022/02/08 04:02:40;;;;;;;11.00;2.95;;;;;;;;;;6216081;23;20016;-79
2022/02/08 04:05:23;;;;;;;14.93;3.53;;;;;;;;;;6216258;23;20196;-77
2022/02/08 04:07:53;;;;;;;12.57;3.42;;;;;;;;;;6215958;23;20533;-78
2022/02/08 04:10:22;;;;;;;9.45;3.17;;;;;;;;;;6189171;23;20050;-78
2022/02/08 04:32:05;;;;;;;14.15;3.40;;;;;;;;;;6216181;23;20007;-79
2022/02/08 04:34:40;;;;;;;10.95;2.40;;;;;;;;;;6216858;23;19996;-78
2022/02/08 04:42:09;;;;;;;12.20;3.77;;;;;;;;;;6215701;23;20019;-79
2022/02/08 04:44:50;;;;;;;15.73;3.00;;;;;;;;;;6189489;23;20020;-78
2022/02/08 04:47:22;;;;;;;10.18;2.80;;;;;;;;;;6215783;23;20000;-78
2022/02/08 04:49:47;;;;;;;12.25;2.88;;;;;;;;;;6216057;23;20008;-77
2022/02/08 04:52:14;;;;;;;12.73;3.33;;;;;;;;;;6215786;23;20004;-77
2022/02/08 04:57:17;;;;;;;10.32;2.75;;;;;;;;;;6215853;23;20000;-77
2022/02/08 05:37:41;;;;;;;9.75;1.98;;;;;;;;;;6215326;23;20020;-77
2022/02/08 05:43:01;;;;;;;9.65;2.78;;;;;;;;;;6224839;23;20007;-77
2022/02/08 05:45:28;;;;;;;11.90;4.30;;;;;;;;;;6188534;23;20001;-77
2022/02/08 05:47:57;;;;;;;8.15;2.13;;;;;;;;;;6188178;23;20004;-77
2022/02/08 05:55:28;;;;;;;5.65;2.05;;;;;;;;;;6225205;23;20012;-78
2022/02/08 05:57:54;;;;;;;7.95;2.25;;;;;;;;;;6214799;23;19997;-78
2022/02/08 06:00:20;;;;;;;7.53;2.05;;;;;;;;;;6214782;23;20031;-77
2022/02/08 06:02:48;;;;;;;9.52;2.22;;;;;;;;;;6214358;23;20028;-77
2022/02/08 06:05:17;;;;;;;8.85;1.98;;;;;;;;;;6214763;23;20020;-78
2022/02/08 06:07:42;;;;;;;9.25;2.00;;;;;;;;;;6214712;23;19997;-77
2022/02/08 06:10:08;;;;;;;12.77;2.22;;;;;;;;;;6214902;23;20020;-77
2022/02/08 06:12:41;;;;;;;10.55;2.20;;;;;;;;;;6214602;23;20338;-78
2022/02/08 06:15:09;;;;;;;11.70;2.42;;;;;;;;;;6188274;23;20080;-79
2022/02/08 06:17:34;;;;;;;9.90;1.90;;;;;;;;;;6188595;23;20051;-77
2022/02/08 06:20:00;;;;;;;9.93;2.80;;;;;;;;;;6214613;23;20422;-78
2022/02/08 06:22:26;;;;;;;9.35;2.50;;;;;;;;;;6214544;23;20433;-77
2022/02/08 06:24:51;;;;;;;11.05;2.30;;;;;;;;;;6215161;23;19996;-77
2022/02/08 06:27:16;;;;;;;12.52;2.33;;;;;;;;;;6187765;23;20015;-78
2022/02/08 06:29:42;;;;;;;15.25;2.75;;;;;;;;;;6214510;23;20024;-78
2022/02/08 06:32:07;;;;;;;13.65;1.67;;;;;;;;;;6214400;23;20333;-77
2022/02/08 06:34:32;;;;;;;8.93;2.08;;;;;;;;;;6214599;23;20046;-77
2022/02/08 06:37:07;;;;;;;11.63;1.98;;;;;;;;;;6188902;23;20004;-77
2022/02/08 06:39:36;;;;;;;6.18;1.67;;;;;;;;;;6214440;23;20018;-77
2022/02/08 06:42:01;;;;;;;10.85;1.98;;;;;;;;;;6214379;23;19997;-78
2022/02/08 06:44:27;;;;;;;8.23;2.30;;;;;;;;;;6214396;23;20329;-77
2022/02/08 06:46:52;;;;;;;13.52;1.92;;;;;;;;;;6214572;23;20006;-77
2022/02/08 06:49:17;;;;;;;6.80;1.98;;;;;;;;;;6214652;23;20000;-76
2022/02/08 06:51:43;;;;;;;10.68;2.50;;;;;;;;;;6214717;23;20382;-76
2022/02/08 06:54:08;;;;;;;11.27;1.95;;;;;;;;;;6214362;23;20001;-75
2022/02/08 06:56:33;;;;;;;9.70;1.85;;;;;;;;;;6214117;23;19993;-75
2022/02/08 06:59:06;;;;;;;15.75;2.53;;;;;;;;;;6214249;23;19997;-77
2022/02/08 07:01:33;;;;;;;9.73;2.58;;;;;;;;;;6212475;23;20055;-77
2022/02/08 07:03:59;;;;;;;9.80;2.08;;;;;;;;;;6214184;23;20071;-76
2022/02/08 07:06:24;;;;;;;6.35;1.73;;;;;;;;;;6214322;23;20596;-76
2022/02/08 07:08:49;;;;;;;6.07;1.80;;;;;;;;;;6212658;23;20012;-77
2022/02/08 07:11:16;;;;;;;11.63;2.03;;;;;;;;;;6213370;23;20001;-77
2022/02/08 07:13:44;;;;;;;8.18;2.30;;;;;;;;;;6214933;23;20008;-77
2022/02/08 07:16:12;;;;;;;9.23;1.90;;;;;;;;;;6212775;23;20422;-77
2022/02/08 07:18:38;;;;;;;10.77;2.00;;;;;;;;;;6212563;23;20334;-77
2022/02/08 07:21:04;;;;;;;13.82;2.28;;;;;;;;;;6215117;23;19999;-77
2022/02/08 07:23:29;;;;;;;8.05;2.10;;;;;;;;;;6214752;23;20131;-77
2022/02/08 07:25:55;;;;;;;10.45;2.22;;;;;;;;;;6214923;23;20418;-76
2022/02/08 07:28:20;;;;;;;6.80;1.77;;;;;;;;;;6212577;23;20001;-77
2022/02/08 07:30:46;;;;;;;9.10;2.10;;;;;;;;;;6214401;23;20000;-77
2022/02/08 07:33:11;;;;;;;10.65;1.52;;;;;;;;;;6213800;23;20016;-77
2022/02/08 07:35:52;;;;;;;6.70;2.28;;;;;;;;;;6214224;23;20000;-76
2022/02/08 07:38:22;;;;;;;12.20;2.40;;;;;;;;;;6213988;23;20101;-76
2022/02/08 07:43:16;;;;;;;6.38;1.88;;;;;;;;;;6214862;23;20003;-76
2022/02/08 07:45:42;;;;;;;6.47;1.80;;;;;;;;;;6214435;23;19997;-76
2022/02/08 07:48:07;;;;;;;8.30;2.13;;;;;;;;;;6214190;23;19997;-76
2022/02/08 07:50:38;;;;;;;9.13;1.70;;;;;;;;;;6214049;23;19996;-77
2022/02/08 07:53:03;;;;;;;8.52;2.15;;;;;;;;;;6213880;23;19999;-76
2022/02/08 07:55:28;;;;;;;4.88;1.70;;;;;;;;;;6214661;23;20080;-76
2022/02/08 07:57:54;;;;;;;4.72;2.00;;;;;;;;;;6214563;23;20001;-77
2022/02/08 08:00:19;;;;;;;10.63;1.52;;;;;;;;;;6214221;23;20001;-77
2022/02/08 08:02:44;;;;;;;10.70;1.70;;;;;;;;;;6213957;23;19997;-77
2022/02/08 08:05:09;;;;;;;6.72;1.63;;;;;;;;;;6213798;23;20480;-76
2022/02/08 08:07:37;;;;;;;7.20;1.88;;;;;;;;;;6213801;23;19993;-77
2022/02/08 08:10:03;;;;;;;6.80;1.63;;;;;;;;;;6213790;23;20453;-77
2022/02/08 08:12:29;;;;;;;5.45;1.83;;;;;;;;;;6213874;23;20001;-76
2022/02/08 08:14:57;;;;;;;8.88;2.53;;;;;;;;;;6215375;23;20473;-77
2022/02/08 08:19:54;;;;;;;11.35;1.55;;;;;;;;;;6225583;23;19996;-77
2022/02/08 08:22:19;;;;;;;10.57;1.60;;;;;;;;;;6188816;23;20457;-76
2022/02/08 08:24:45;;;;;;;4.75;1.70;;;;;;;;;;6214913;23;20001;-76
2022/02/08 08:27:10;;;;;;;7.95;1.88;;;;;;;;;;6215050;23;20422;-77
2022/02/08 08:29:36;;;;;;;7.30;1.50;;;;;;;;;;6214958;23;20385;-77
2022/02/08 08:32:04;;;;;;;8.63;1.70;;;;;;;;;;6215234;23;19997;-77
2022/02/08 08:34:29;;;;;;;7.57;1.25;;;;;;;;;;6215164;23;20079;-77
2022/02/08 08:36:55;;;;;;;9.07;2.42;;;;;;;;;;6214858;23;20036;-77
2022/02/08 08:39:25;;;;;;;6.95;2.00;;;;;;;;;;6188295;23;20000;-77
2022/02/08 08:52:34;;;;;;;8.27;1.58;;;;;;;;;;6215756;23;20124;-77
2022/02/08 08:54:59;;;;;;;4.03;1.63;;;;;;;;;;6215416;23;20429;-77
2022/02/08 08:57:25;;;;;;;3.67;1.20;;;;;;;;;;6215034;23;20043;-76
2022/02/08 08:59:51;;;;;;;3.00;1.00;;;;;;;;;;6215573;23;19996;-78
2022/02/08 09:02:16;;;;;;;4.35;1.35;;;;;;;;;;6215435;23;20330;-77
2022/02/08 09:04:44;;;;;;;1.55;0.80;;;;;;;;;;6215530;23;19997;-77
2022/02/08 09:07:09;;;;;;;5.47;1.10;;;;;;;;;;6215349;23;20020;-78
2022/02/08 09:09:37;;;;;;;8.27;1.23;;;;;;;;;;6188897;23;20422;-76
2022/02/08 09:14:45;;;;;;;7.50;1.15;;;;;;;;;;6215950;23;20426;-77
2022/02/08 09:20:08;;;;;;;4.88;1.63;;;;;;;;;;6215458;23;19997;-77
2022/02/08 09:25:11;;;;;;;3.83;1.33;;;;;;;;;;6215534;23;20005;-75
2022/02/08 09:30:15;;;;;;;8.15;1.40;;;;;;;;;;6225474;23;20007;-78
2022/02/08 09:35:09;;;;;;;4.55;0.80;;;;;;;;;;6213623;23;20389;-76
2022/02/08 09:37:35;;;;;;;3.67;1.20;;;;;;;;;;6214932;23;20358;-77
2022/02/08 09:40:01;;;;;;;4.38;1.00;;;;;;;;;;6215410;23;19999;-78
2022/02/08 09:42:26;;;;;;;6.13;1.50;;;;;;;;;;6214562;23;19992;-79
2022/02/08 09:44:53;;;;;;;7.63;1.60;;;;;;;;;;6187508;23;20001;-77
2022/02/08 09:47:28;;;;;;;6.85;1.38;;;;;;;;;;6214859;23;20005;-77
2022/02/08 09:49:55;;;;;;;5.80;1.70;;;;;;;;;;6215729;23;20433;-76
2022/02/08 09:52:22;;;;;;;7.82;1.67;;;;;;;;;;6214903;23;20000;-78
2022/02/08 09:54:47;;;;;;;10.43;1.65;;;;;;;;;;6215130;23;20000;-77
2022/02/08 09:57:14;;;;;;;6.38;1.95;;;;;;;;;;6215209;23;19997;-77
2022/02/08 09:59:41;;;;;;;5.03;1.42;;;;;;;;;;6215415;23;19992;-78
2022/02/08 10:02:06;;;;;;;6.32;1.63;;;;;;;;;;6214959;23;20027;-77
2022/02/08 10:04:31;;;;;;;7.18;1.65;;;;;;;;;;6215533;23;19996;-77
2022/02/08 10:07:08;;;;;;;5.97;1.50;;;;;;;;;;6216224;23;20472;-76
2022/02/08 10:09:34;;;;;;;3.53;1.55;;;;;;;;;;6215814;23;19996;-77
2022/02/08 10:11:59;;;;;;;8.18;1.67;;;;;;;;;;6214683;23;20006;-77
2022/02/08 10:22:15;;;;;;;5.63;1.88;;;;;;;;;;6224896;23;19997;-77
2022/02/08 10:24:47;;;;;;;8.60;1.88;;;;;;;;;;6215648;23;20050;-77
2022/02/08 10:27:25;;;;;;;4.70;1.50;;;;;;;;;;6216686;23;20052;-76
2022/02/08 10:37:48;;;;;;;4.90;1.63;;;;;;;;;;6213892;22;20019;-75
2022/02/08 10:40:18;;;;;;;6.38;1.58;;;;;;;;;;6214633;23;20422;-75
2022/02/08 10:43:09;;;;;;;3.15;1.20;;;;;;;;;;6213356;23;20009;-73
2022/02/08 10:45:36;;;;;;;4.00;1.55;;;;;;;;;;6212228;23;20000;-74
2022/02/08 10:48:07;;;;;;;3.85;1.58;;;;;;;;;;6214894;23;20092;-76
2022/02/08 10:50:34;;;;;;;9.82;1.73;;;;;;;;;;6215022;23;20645;-75
2022/02/08 10:53:02;;;;;;;4.03;1.38;;;;;;;;;;6213908;23;20034;-76
2022/02/08 10:58:15;;;;;;;5.70;1.25;;;;;;;;;;6219821;23;19996;-75
2022/02/08 11:00:59;;;;;;;6.05;1.65;;;;;;;;;;6214911;23;20072;-75
2022/02/08 11:03:37;;;;;;;5.97;1.35;;;;;;;;;;6214426;23;20076;-75
2022/02/08 11:08:40;;;;;;;2.72;1.00;;;;;;;;;;6215373;23;20326;-75
2022/02/08 11:16:50;;;;;;;4.78;1.52;;;;;;;;;;6224266;23;20000;-76
2022/02/08 11:19:26;;;;;;;3.10;1.10;;;;;;;;;;6214091;23;20020;-75
2022/02/08 11:22:07;;;;;;;4.90;1.42;;;;;;;;;;6213513;23;19999;-76
2022/02/08 11:24:43;;;;;;;2.85;1.00;;;;;;;;;;6214420;23;20054;-76
2022/02/08 11:27:11;;;;;;;5.03;1.15;;;;;;;;;;6214393;23;20338;-75
2022/02/08 11:29:42;;;;;;;5.65;1.17;;;;;;;;;;6212595;23;20023;-75
2022/02/08 11:45:58;;;;;;;4.25;1.23;;;;;;;;;;6191895;23;20449;-75
2022/02/08 11:48:48;;;;;;;8.38;1.52;;;;;;;;;;6215810;23;20004;-75
2022/02/08 12:07:46;;;;;;;4.05;1.27;;;;;;;;;;6154945;23;20024;-75
2022/02/08 12:10:21;;;;;;;2.75;1.85;;;;;;;;;;6216597;23;20016;-75
2022/02/08 12:32:03;;;;;;;3.85;1.63;;;;;;;;;;6216647;23;20031;-75
2022/02/08 12:56:41;;;;;;;3.75;1.30;;;;;;;;;;6216350;23;20449;-75
2022/02/08 12:59:26;;;;;;;5.45;1.60;;;;;;;;;;6216517;23;19997;-76
2022/02/08 14:01:42;;;;;;;4.07;1.40;;;;;;;;;;6216370;23;20457;-75
2022/02/08 14:12:20;;;;;;;4.05;1.02;;;;;;;;;;6215736;23;20004;-75
2022/02/08 14:14:50;;;;;;;5.05;1.20;;;;;;;;;;6220455;23;20051;-76
2022/02/08 14:17:39;;;;;;;8.05;1.67;;;;;;;;;;6226887;23;20448;-75
2022/02/08 14:20:29;;;;;;;3.30;1.30;;;;;;;;;;6229090;23;19996;-76
2022/02/08 14:23:24;;;;;;;3.30;1.10;;;;;;;;;;6226997;23;19993;-75
2022/02/08 14:29:02;;;;;;;2.92;1.25;;;;;;;;;;6228213;23;20084;-75
2022/02/08 14:34:42;;;;;;;4.38;1.13;;;;;;;;;;6215166;23;20422;-75
2022/02/08 15:09:26;;;;;;;3.40;1.10;;;;;;;;;;6215614;23;20090;-76
2022/02/08 15:12:28;;;;;;;4.68;1.70;;;;;;;;;;6213815;23;20000;-75
2022/02/08 15:17:11;;;;;;;5.45;1.50;;;;;;;;;;6214836;23;20052;-75
2022/02/08 15:19:38;;;;;;;6.55;1.70;;;;;;;;;;6217135;23;20453;-76
2022/02/08 15:22:05;;;;;;;3.30;1.45;;;;;;;;;;6214837;23;20422;-76
2022/02/08 15:24:30;;;;;;;4.13;1.30;;;;;;;;;;6216757;23;20123;-75
2022/02/08 15:26:56;;;;;;;3.65;1.70;;;;;;;;;;6216550;23;20000;-76
2022/02/08 15:29:21;;;;;;;3.50;1.30;;;;;;;;;;6189803;23;20521;-76
2022/02/08 15:31:46;;;;;;;3.83;1.42;;;;;;;;;;6216295;23;20072;-75
2022/02/08 15:34:12;;;;;;;6.03;1.60;;;;;;;;;;6216142;23;20001;-75
2022/02/08 15:36:37;;;;;;;9.93;2.38;;;;;;;;;;6189801;23;20004;-75
2022/02/08 15:39:07;;;;;;;8.93;1.98;;;;;;;;;;6216093;23;20004;-75
2022/02/08 15:41:37;;;;;;;4.13;1.48;;;;;;;;;;6216249;23;19992;-76
2022/02/08 15:44:03;;;;;;;8.25;2.17;;;;;;;;;;6216029;23;20488;-76
2022/02/08 15:46:30;;;;;;;5.32;1.52;;;;;;;;;;6216063;23;20442;-76
2022/02/08 15:48:55;;;;;;;6.00;1.83;;;;;;;;;;6216181;23;20001;-76
2022/02/08 15:51:30;;;;;;;5.78;1.50;;;;;;;;;;6216777;23;20020;-75
2022/02/08 15:56:39;;;;;;;7.53;1.52;;;;;;;;;;6227342;23;19996;-76
2022/02/08 16:17:52;;;;;;;4.85;1.98;;;;;;;;;;6216503;23;20004;-75
2022/02/08 16:31:36;;;;;;;3.50;1.80;;;;;;;;;;6216122;23;20061;-75
2022/02/08 16:46:10;;;;;;;5.50;2.65;;;;;;;;;;6215315;22;20019;-76
2022/02/08 17:00:51;;;;;;;7.78;3.05;;;;;;;;;;6185651;23;20004;-77
2022/02/08 17:03:23;;;;;;;10.57;3.03;;;;;;;;;;6184116;23;20001;-76
2022/02/08 17:05:48;;;;;;;5.85;2.17;;;;;;;;;;6185926;23;20469;-76
2022/02/08 17:08:14;;;;;;;6.85;2.53;;;;;;;;;;6185824;23;20060;-77
2022/02/08 17:10:44;;;;;;;7.25;2.88;;;;;;;;;;6184523;23;19997;-75
2022/02/08 17:13:21;;;;;;;4.25;2.03;;;;;;;;;;6186339;23;20099;-76
2022/02/08 17:16:11;;;;;;;7.70;2.70;;;;;;;;;;6186666;23;20028;-75
2022/02/08 17:35:45;;;;;;;13.02;3.15;;;;;;;;;;6185164;23;20008;-75
2022/02/08 17:48:21;;;;;;;13.48;2.78;;;;;;;;;;6185249;23;20000;-76
2022/02/08 17:50:48;;;;;;;7.05;2.40;;;;;;;;;;6184891;23;20025;-76
2022/02/08 17:53:13;;;;;;;8.48;2.88;;;;;;;;;;6185101;23;20426;-75
2022/02/08 17:55:39;;;;;;;6.70;2.60;;;;;;;;;;6158469;23;20020;-76
2022/02/08 17:58:04;;;;;;;8.93;2.42;;;;;;;;;;6184982;23;19997;-76
2022/02/08 18:00:32;;;;;;;5.18;2.40;;;;;;;;;;6185059;23;20441;-75
2022/02/08 18:02:58;;;;;;;6.78;2.50;;;;;;;;;;6184891;23;20017;-76
2022/02/08 18:05:25;;;;;;;7.82;2.40;;;;;;;;;;6158828;23;20001;-75
2022/02/08 18:07:51;;;;;;;8.50;3.38;;;;;;;;;;6185064;23;20007;-74
2022/02/08 18:10:21;;;;;;;9.18;2.80;;;;;;;;;;6184726;23;20072;-75
2022/02/08 18:12:47;;;;;;;6.07;2.38;;;;;;;;;;6158281;23;20005;-76
2022/02/08 18:15:13;;;;;;;7.55;2.47;;;;;;;;;;6184624;23;20000;-76
2022/02/08 18:17:44;;;;;;;6.30;2.40;;;;;;;;;;6184885;23;19993;-75
2022/02/08 18:20:57;;;;;;;7.65;2.72;;;;;;;;;;6184604;23;19993;-76
2022/02/08 18:28:28;;;;;;;5.13;2.60;;;;;;;;;;6184535;23;20501;-77
2022/02/08 18:51:03;;;;;;;7.75;3.15;;;;;;;;;;6184028;23;20012;-77
2022/02/08 19:09:16;;;;;;;4.75;1.77;;;;;;;;;;6184340;23;20024;-76
2022/02/08 19:11:52;;;;;;;7.95;2.53;;;;;;;;;;6158237;23;20006;-76
2022/02/08 19:21:46;;;;;;;5.10;2.20;;;;;;;;;;6185254;23;20084;-76
2022/02/08 19:24:19;;;;;;;6.05;2.25;;;;;;;;;;6184483;23;20073;-76
2022/02/08 19:26:48;;;;;;;9.55;2.35;;;;;;;;;;6184519;23;20072;-77
2022/02/08 19:29:14;;;;;;;5.55;2.10;;;;;;;;;;6184732;23;20008;-76
2022/02/08 19:31:40;;;;;;;4.78;2.20;;;;;;;;;;6184283;23;20005;-75
2022/02/08 19:34:05;;;;;;;6.00;1.88;;;;;;;;;;6184242;23;20008;-75
2022/02/08 19:36:30;;;;;;;6.05;2.25;;;;;;;;;;6184749;23;20000;-77
2022/02/08 19:38:58;;;;;;;4.07;1.70;;;;;;;;;;6184403;23;20500;-77
2022/02/08 19:41:23;;;;;;;8.35;2.65;;;;;;;;;;6184465;23;19997;-77
2022/02/08 19:43:48;;;;;;;5.35;2.50;;;;;;;;;;6184762;23;20496;-77
2022/02/08 19:46:14;;;;;;;8.25;2.15;;;;;;;;;;6184269;23;20008;-78
2022/02/08 19:48:40;;;;;;;7.18;2.33;;;;;;;;;;6184302;23;20063;-76
2022/02/08 19:51:05;;;;;;;3.85;1.77;;;;;;;;;;6184757;23;19997;-76
2022/02/08 19:53:33;;;;;;;5.13;2.28;;;;;;;;;;6157693;23;20001;-76
2022/02/08 19:58:27;;;;;;;5.10;2.20;;;;;;;;;;6185856;23;20012;-78
2022/02/08 20:01:01;;;;;;;7.97;3.17;;;;;;;;;;6185004;23;20438;-77
2022/02/08 20:03:34;;;;;;;8.55;1.90;;;;;;;;;;6184675;23;19997;-76
2022/02/08 20:05:59;;;;;;;8.02;3.20;;;;;;;;;;6185138;23;19997;-76
2022/02/08 20:08:26;;;;;;;5.88;1.98;;;;;;;;;;6185546;23;20322;-78
2022/02/08 20:10:52;;;;;;;5.45;2.10;;;;;;;;;;6187024;23;19997;-76
2022/02/08 20:13:17;;;;;;;5.47;2.25;;;;;;;;;;6187133;23;20036;-78
2022/02/08 20:15:43;;;;;;;5.95;2.17;;;;;;;;;;6186843;23;19997;-76
2022/02/08 20:18:08;;;;;;;6.03;1.90;;;;;;;;;;6186864;23;20047;-77
2022/02/08 20:20:34;;;;;;;5.43;2.20;;;;;;;;;;6186298;23;20003;-77
2022/02/08 20:23:01;;;;;;;4.65;2.20;;;;;;;;;;6186182;23;20000;-76
2022/02/08 20:25:27;;;;;;;5.40;2.13;;;;;;;;;;6160219;23;20412;-76
2022/02/08 20:30:44;;;;;;;5.95;2.03;;;;;;;;;;6153039;23;20008;-75
2022/02/08 20:33:10;;;;;;;4.18;2.13;;;;;;;;;;6187433;23;20001;-77
2022/02/08 20:35:35;;;;;;;6.22;2.90;;;;;;;;;;6186701;23;20032;-78
2022/02/08 20:38:02;;;;;;;8.27;2.40;;;;;;;;;;6187115;23;20395;-77
2022/02/08 20:40:28;;;;;;;5.10;2.40;;;;;;;;;;6186667;23;20005;-77
2022/02/08 20:42:59;;;;;;;7.18;2.38;;;;;;;;;;6186547;23;20083;-77
2022/02/08 20:45:24;;;;;;;12.63;2.50;;;;;;;;;;6186235;23;20001;-77
2022/02/08 20:47:49;;;;;;;8.07;2.10;;;;;;;;;;6186600;23;20075;-78
2022/02/08 20:50:18;;;;;;;5.88;2.10;;;;;;;;;;6186552;23;20337;-77
2022/02/08 20:52:51;;;;;;;7.25;2.50;;;;;;;;;;6185958;23;20080;-76
2022/02/08 20:55:18;;;;;;;6.97;2.20;;;;;;;;;;6160904;23;20001;-77
2022/02/08 20:57:50;;;;;;;5.72;1.98;;;;;;;;;;6186018;23;20000;-78
2022/02/08 21:00:17;;;;;;;5.90;1.85;;;;;;;;;;6158901;23;20311;-77
2022/02/08 21:02:54;;;;;;;5.95;2.50;;;;;;;;;;6185389;23;19997;-78
2022/02/08 21:07:53;;;;;;;4.32;2.17;;;;;;;;;;6196142;23;20005;-77
2022/02/08 21:10:19;;;;;;;6.07;1.97;;;;;;;;;;6186422;23;20028;-76
2022/02/08 21:13:02;;;;;;;7.63;2.25;;;;;;;;;;6185862;23;20668;-77
2022/02/08 21:15:29;;;;;;;4.45;2.03;;;;;;;;;;6159183;23;20001;-78
2022/02/08 21:17:54;;;;;;;6.43;2.33;;;;;;;;;;6159305;23;20001;-78
2022/02/08 21:20:20;;;;;;;8.05;2.30;;;;;;;;;;6185509;23;20427;-77
2022/02/08 21:22:45;;;;;;;5.18;1.90;;;;;;;;;;6158992;23;19997;-78
2022/02/08 21:25:10;;;;;;;5.68;1.60;;;;;;;;;;6185412;23;20381;-79
2022/02/08 21:27:40;;;;;;;3.80;2.30;;;;;;;;;;6158804;23;20378;-77
2022/02/08 21:33:04;;;;;;;3.97;1.92;;;;;;;;;;6185678;23;20000;-77
2022/02/08 21:48:54;;;;;;;3.80;1.92;;;;;;;;;;6187645;23;19997;-80
2022/02/08 21:51:23;;;;;;;6.63;2.45;;;;;;;;;;6187264;23;19989;-77
2022/02/08 21:53:50;;;;;;;7.78;2.35;;;;;;;;;;6187715;23;20063;-78
2022/02/08 21:56:16;;;;;;;4.63;2.08;;;;;;;;;;6187897;23;20004;-78
2022/02/08 21:58:43;;;;;;;5.63;3.00;;;;;;;;;;6185562;23;20605;-78
2022/02/08 22:01:09;;;;;;;4.35;2.38;;;;;;;;;;6185593;23;20013;-78
2022/02/08 22:03:34;;;;;;;6.65;2.55;;;;;;;;;;6185507;23;20008;-77
2022/02/08 22:06:00;;;;;;;6.78;2.92;;;;;;;;;;6158789;23;20001;-77
2022/02/08 22:08:36;;;;;;;7.28;2.72;;;;;;;;;;6185230;23;20003;-76
2022/02/08 22:23:51;;;;;;;7.10;2.40;;;;;;;;;;6184858;23;20001;-77
2022/02/08 22:31:15;;;;;;;5.93;2.42;;;;;;;;;;6185424;23;20001;-77
2022/02/08 22:33:46;;;;;;;7.03;2.42;;;;;;;;;;6184162;23;19993;-76
2022/02/08 22:36:20;;;;;;;5.53;2.47;;;;;;;;;;6185339;23;20076;-78
2022/02/08 22:38:54;;;;;;;9.73;3.20;;;;;;;;;;6184969;23;20001;-78
2022/02/08 22:41:24;;;;;;;7.70;2.60;;;;;;;;;;6184549;23;20021;-79
2022/02/08 22:44:00;;;;;;;6.60;2.53;;;;;;;;;;6158779;23;19997;-78
2022/02/08 22:46:27;;;;;;;5.82;2.50;;;;;;;;;;6184559;23;19993;-76
2022/02/08 22:48:52;;;;;;;6.78;2.60;;;;;;;;;;6184586;23;20008;-77
2022/02/08 22:51:17;;;;;;;6.00;2.60;;;;;;;;;;6184950;23;20060;-76
2022/02/08 22:53:42;;;;;;;8.10;2.45;;;;;;;;;;6185038;23;20000;-77
2022/02/08 22:56:08;;;;;;;5.80;2.50;;;;;;;;;;6187564;23;20051;-77
2022/02/08 22:58:35;;;;;;;6.00;3.30;;;;;;;;;;6160666;23;19997;-77
2022/02/08 23:01:02;;;;;;;5.72;2.35;;;;;;;;;;6160965;23;19993;-78
2022/02/08 23:03:27;;;;;;;4.40;2.50;;;;;;;;;;6186591;23;20418;-77
2022/02/08 23:05:52;;;;;;;8.13;2.63;;;;;;;;;;6187350;23;20043;-78
2022/02/08 23:08:18;;;;;;;7.93;2.63;;;;;;;;;;6186734;23;20016;-78
2022/02/08 23:37:31;;;;;;;5.53;2.78;;;;;;;;;;6186957;23;20028;-78
2022/02/08 23:39:56;;;;;;;5.35;2.88;;;;;;;;;;6179133;23;20013;-79
2022/02/08 23:42:23;;;;;;;8.10;2.90;;;;;;;;;;6185143;23;19997;-79
2022/02/08 23:44:48;;;;;;;10.27;3.25;;;;;;;;;;6189036;23;19997;-79
2022/02/08 23:47:19;;;;;;;6.38;2.78;;;;;;;;;;6189323;23;20000;-77